sensor_id;sensor_type;location;lat;lon;timestamp;pressure;altitude;pressure_sealevel;temperature;humidity
11041;BME280;5573;49.592;8.662;2023-01-01T00:00:19;99983.06;;;14.96;84.38
11041;BME280;5573;49.592;8.662;2023-01-01T00:02:47;99979.44;;;15.02;84.71
11041;BME280;5573;49.592;8.662;2023-01-01T00:05:14;99974.75;;;14.96;84.83
11041;BME280;5573;49.592;8.662;2023-01-01T00:07:42;99985.03;;;14.99;84.75
11041;BME280;5573;49.592;8.662;2023-01-01T00:10:10;99975.97;;;14.91;85.18
11041;BME280;5573;49.592;8.662;2023-01-01T00:12:58;99988.97;;;15.01;84.41
11041;BME280;5573;49.592;8.662;2023-01-01T00:15:26;99992.53;;;14.98;84.31
11041;BME280;5573;49.592;8.662;2023-01-01T00:17:54;99990.97;;;14.94;85.52
11041;BME280;5573;49.592;8.662;2023-01-01T00:20:23;99991.81;;;14.87;85.61
11041;BME280;5573;49.592;8.662;2023-01-01T00:22:58;99993.34;;;14.99;85.42
11041;BME280;5573;49.592;8.662;2023-01-01T00:25:26;99992.25;;;14.82;86.63
11041;BME280;5573;49.592;8.662;2023-01-01T00:27:54;99993.44;;;14.81;86.34
11041;BME280;5573;49.592;8.662;2023-01-01T00:30:23;99999.66;;;14.96;85.29
11041;BME280;5573;49.592;8.662;2023-01-01T00:32:51;99994.16;;;14.92;85.30
11041;BME280;5573;49.592;8.662;2023-01-01T00:35:21;99992.13;;;14.96;85.41
11041;BME280;5573;49.592;8.662;2023-01-01T00:37:48;100002.03;;;14.97;85.21
11041;BME280;5573;49.592;8.662;2023-01-01T00:40:16;99994.22;;;14.81;86.06
11041;BME280;5573;49.592;8.662;2023-01-01T00:42:44;99992.56;;;14.95;84.71
11041;BME280;5573;49.592;8.662;2023-01-01T00:45:12;99993.75;;;14.94;85.07
11041;BME280;5573;49.592;8.662;2023-01-01T00:47:49;99996.63;;;14.79;85.92
11041;BME280;5573;49.592;8.662;2023-01-01T00:50:20;99982.78;;;14.79;86.08
11041;BME280;5573;49.592;8.662;2023-01-01T00:52:48;99987.03;;;14.95;85.02
11041;BME280;5573;49.592;8.662;2023-01-01T00:55:16;99985.91;;;14.81;85.59
11041;BME280;5573;49.592;8.662;2023-01-01T00:57:44;99985.44;;;14.94;84.65
11041;BME280;5573;49.592;8.662;2023-01-01T01:00:13;99985.88;;;14.89;85.54
11041;BME280;5573;49.592;8.662;2023-01-01T01:02:41;99985.97;;;14.78;86.51
11041;BME280;5573;49.592;8.662;2023-01-01T01:05:10;99985.84;;;14.92;85.23
11041;BME280;5573;49.592;8.662;2023-01-01T01:07:38;99980.75;;;14.83;85.56
11041;BME280;5573;49.592;8.662;2023-01-01T01:10:07;99983.44;;;14.98;84.35
11041;BME280;5573;49.592;8.662;2023-01-01T01:12:37;99969.22;;;14.92;84.54
11041;BME280;5573;49.592;8.662;2023-01-01T01:15:06;99946.44;;;14.70;86.02
11041;BME280;5573;49.592;8.662;2023-01-01T01:17:35;99971.00;;;14.64;87.91
11041;BME280;5573;49.592;8.662;2023-01-01T01:20:03;99975.00;;;14.60;88.13
11041;BME280;5573;49.592;8.662;2023-01-01T01:22:33;99937.50;;;14.41;88.00
11041;BME280;5573;49.592;8.662;2023-01-01T01:25:01;99965.91;;;14.59;88.44
11041;BME280;5573;49.592;8.662;2023-01-01T01:27:28;99969.34;;;14.78;87.71
11041;BME280;5573;49.592;8.662;2023-01-01T01:29:56;99976.13;;;14.70;86.90
11041;BME280;5573;49.592;8.662;2023-01-01T01:32:24;99975.59;;;14.86;85.06
11041;BME280;5573;49.592;8.662;2023-01-01T01:34:51;99980.75;;;14.87;84.83
11041;BME280;5573;49.592;8.662;2023-01-01T01:37:19;99973.22;;;14.88;84.41
11041;BME280;5573;49.592;8.662;2023-01-01T01:39:48;99991.28;;;15.03;82.39
11041;BME280;5573;49.592;8.662;2023-01-01T01:42:20;99987.81;;;14.92;83.81
11041;BME280;5573;49.592;8.662;2023-01-01T01:44:54;99992.94;;;14.97;83.16
11041;BME280;5573;49.592;8.662;2023-01-01T01:47:27;99989.44;;;14.89;83.78
11041;BME280;5573;49.592;8.662;2023-01-01T01:50:00;99981.97;;;14.82;84.09
11041;BME280;5573;49.592;8.662;2023-01-01T01:52:32;99983.88;;;14.93;83.71
11041;BME280;5573;49.592;8.662;2023-01-01T01:55:03;99980.38;;;14.85;84.78
11041;BME280;5573;49.592;8.662;2023-01-01T01:57:32;99991.44;;;14.89;83.61
11041;BME280;5573;49.592;8.662;2023-01-01T02:00:00;99992.91;;;15.00;82.10
11041;BME280;5573;49.592;8.662;2023-01-01T02:02:41;99985.41;;;14.97;82.31
11041;BME280;5573;49.592;8.662;2023-01-01T02:05:10;99990.91;;;15.04;81.81
11041;BME280;5573;49.592;8.662;2023-01-01T02:07:38;99995.22;;;15.09;80.57
11041;BME280;5573;49.592;8.662;2023-01-01T02:10:08;99990.03;;;15.11;80.87
11041;BME280;5573;49.592;8.662;2023-01-01T02:12:36;99996.34;;;15.15;80.27
11041;BME280;5573;49.592;8.662;2023-01-01T02:15:05;99983.50;;;14.87;82.07
11041;BME280;5573;49.592;8.662;2023-01-01T02:17:39;99997.69;;;14.96;82.07
11041;BME280;5573;49.592;8.662;2023-01-01T02:26:25;99977.16;;;14.90;82.13
11041;BME280;5573;49.592;8.662;2023-01-01T02:29:11;99993.38;;;14.92;82.75
11041;BME280;5573;49.592;8.662;2023-01-01T02:31:48;99992.19;;;14.93;81.88
11041;BME280;5573;49.592;8.662;2023-01-01T02:34:19;99994.91;;;15.00;82.02
11041;BME280;5573;49.592;8.662;2023-01-01T02:36:52;99988.97;;;14.98;81.22
11041;BME280;5573;49.592;8.662;2023-01-01T02:39:24;99990.66;;;14.84;83.37
11041;BME280;5573;49.592;8.662;2023-01-01T02:41:54;99980.38;;;14.85;83.61
11041;BME280;5573;49.592;8.662;2023-01-01T02:44:27;99979.59;;;14.84;82.82
11041;BME280;5573;49.592;8.662;2023-01-01T02:47:05;99983.16;;;14.81;83.55
11041;BME280;5573;49.592;8.662;2023-01-01T02:49:37;99999.28;;;14.97;82.09
11041;BME280;5573;49.592;8.662;2023-01-01T02:52:11;100001.25;;;14.97;81.71
11041;BME280;5573;49.592;8.662;2023-01-01T02:54:47;100011.22;;;14.83;82.87
11041;BME280;5573;49.592;8.662;2023-01-01T02:57:30;100021.53;;;14.79;83.23
11041;BME280;5573;49.592;8.662;2023-01-01T03:00:05;100023.53;;;14.79;83.84
11041;BME280;5573;49.592;8.662;2023-01-01T03:02:55;100029.13;;;14.72;84.43
11041;BME280;5573;49.592;8.662;2023-01-01T03:05:33;100023.56;;;14.72;84.22
11041;BME280;5573;49.592;8.662;2023-01-01T03:08:30;100027.13;;;14.76;84.84
11041;BME280;5573;49.592;8.662;2023-01-01T03:11:04;100024.75;;;14.74;84.00
11041;BME280;5573;49.592;8.662;2023-01-01T03:13:36;99970.78;;;14.27;84.87
11041;BME280;5573;49.592;8.662;2023-01-01T03:16:11;100027.19;;;14.58;85.83
11041;BME280;5573;49.592;8.662;2023-01-01T03:18:43;100023.25;;;14.48;85.93
11041;BME280;5573;49.592;8.662;2023-01-01T03:21:17;100030.34;;;14.60;85.56
11041;BME280;5573;49.592;8.662;2023-01-01T03:23:50;100029.53;;;14.63;84.92
11041;BME280;5573;49.592;8.662;2023-01-01T03:26:22;100030.78;;;14.51;85.95
11041;BME280;5573;49.592;8.662;2023-01-01T03:28:55;100030.75;;;14.55;85.19
11041;BME280;5573;49.592;8.662;2023-01-01T03:31:25;100032.28;;;14.67;84.29
11041;BME280;5573;49.592;8.662;2023-01-01T03:33:55;100033.84;;;14.75;83.47
11041;BME280;5573;49.592;8.662;2023-01-01T03:36:28;100037.84;;;14.67;83.96
11041;BME280;5573;49.592;8.662;2023-01-01T03:38:58;100028.22;;;14.86;83.03
11041;BME280;5573;49.592;8.662;2023-01-01T03:41:32;100026.28;;;14.79;82.80
11041;BME280;5573;49.592;8.662;2023-01-01T03:44:03;100033.81;;;14.78;83.12
11041;BME280;5573;49.592;8.662;2023-01-01T03:46:35;100031.56;;;14.59;85.16
11041;BME280;5573;49.592;8.662;2023-01-01T03:49:05;100037.81;;;14.70;83.64
11041;BME280;5573;49.592;8.662;2023-01-01T03:51:54;100042.22;;;14.60;84.77
11041;BME280;5573;49.592;8.662;2023-01-01T03:54:31;100028.81;;;14.55;84.52
11041;BME280;5573;49.592;8.662;2023-01-01T03:57:08;100034.66;;;14.68;83.95
11041;BME280;5573;49.592;8.662;2023-01-01T03:59:40;100029.88;;;14.76;83.20
11041;BME280;5573;49.592;8.662;2023-01-01T04:02:15;100026.34;;;14.72;83.20
11041;BME280;5573;49.592;8.662;2023-01-01T04:04:46;100033.44;;;14.76;82.34
11041;BME280;5573;49.592;8.662;2023-01-01T04:07:15;100032.63;;;14.79;82.46
11041;BME280;5573;49.592;8.662;2023-01-01T04:09:46;100028.72;;;14.70;82.68
11041;BME280;5573;49.592;8.662;2023-01-01T04:12:16;100039.34;;;14.78;81.96
11041;BME280;5573;49.592;8.662;2023-01-01T04:14:45;100034.59;;;14.82;82.23
11041;BME280;5573;49.592;8.662;2023-01-01T04:17:14;100027.91;;;14.69;82.19
11041;BME280;5573;49.592;8.662;2023-01-01T04:19:41;100037.47;;;14.61;83.15
11041;BME280;5573;49.592;8.662;2023-01-01T04:22:15;100031.91;;;14.64;81.77
11041;BME280;5573;49.592;8.662;2023-01-01T04:24:45;100033.06;;;14.67;81.85
11041;BME280;5573;49.592;8.662;2023-01-01T04:27:13;100030.22;;;14.85;79.52
11041;BME280;5573;49.592;8.662;2023-01-01T04:29:40;100020.00;;;14.75;81.51
11041;BME280;5573;49.592;8.662;2023-01-01T04:32:08;100016.06;;;14.72;79.95
11041;BME280;5573;49.592;8.662;2023-01-01T04:34:37;100030.28;;;14.78;79.71
11041;BME280;5573;49.592;8.662;2023-01-01T04:37:05;100033.91;;;14.64;81.04
11041;BME280;5573;49.592;8.662;2023-01-01T04:39:39;100033.53;;;14.58;81.04
11041;BME280;5573;49.592;8.662;2023-01-01T04:42:06;100039.75;;;14.73;79.62
11041;BME280;5573;49.592;8.662;2023-01-01T04:44:34;100045.78;;;14.61;80.45
11041;BME280;5573;49.592;8.662;2023-01-01T04:47:02;100054.88;;;14.54;80.29
11041;BME280;5573;49.592;8.662;2023-01-01T04:49:30;100048.47;;;14.75;78.85
11041;BME280;5573;49.592;8.662;2023-01-01T04:51:59;100043.81;;;14.58;79.58
11041;BME280;5573;49.592;8.662;2023-01-01T04:54:27;100046.50;;;14.72;78.71
11041;BME280;5573;49.592;8.662;2023-01-01T04:56:54;100044.50;;;14.76;77.45
11041;BME280;5573;49.592;8.662;2023-01-01T04:59:22;100042.16;;;14.71;78.45
11041;BME280;5573;49.592;8.662;2023-01-01T05:01:50;100048.91;;;14.70;79.37
11041;BME280;5573;49.592;8.662;2023-01-01T05:04:18;100060.44;;;14.58;79.41
11041;BME280;5573;49.592;8.662;2023-01-01T05:06:45;100060.03;;;14.56;79.43
11041;BME280;5573;49.592;8.662;2023-01-01T05:09:14;100058.81;;;14.68;79.18
11041;BME280;5573;49.592;8.662;2023-01-01T05:11:42;100069.13;;;14.46;80.55
11041;BME280;5573;49.592;8.662;2023-01-01T05:14:10;100067.97;;;14.47;80.55
11041;BME280;5573;49.592;8.662;2023-01-01T05:16:39;100078.66;;;14.44;80.68
11041;BME280;5573;49.592;8.662;2023-01-01T05:19:07;100081.00;;;14.50;79.99
11041;BME280;5573;49.592;8.662;2023-01-01T05:21:37;100073.47;;;14.54;79.93
11041;BME280;5573;49.592;8.662;2023-01-01T05:24:07;100085.34;;;14.43;80.56
11041;BME280;5573;49.592;8.662;2023-01-01T05:26:41;100086.13;;;14.48;80.55
11041;BME280;5573;49.592;8.662;2023-01-01T05:29:09;100107.94;;;14.42;80.61
11041;BME280;5573;49.592;8.662;2023-01-01T05:31:43;100090.50;;;14.45;79.80
11041;BME280;5573;49.592;8.662;2023-01-01T05:34:11;100107.88;;;14.49;80.24
11041;BME280;5573;49.592;8.662;2023-01-01T05:36:39;100104.38;;;14.34;80.96
11041;BME280;5573;49.592;8.662;2023-01-01T05:39:08;100096.88;;;14.31;82.00
11041;BME280;5573;49.592;8.662;2023-01-01T05:41:39;100097.25;;;14.33;81.44
11041;BME280;5573;49.592;8.662;2023-01-01T05:44:07;100104.81;;;14.22;81.23
11041;BME280;5573;49.592;8.662;2023-01-01T05:46:36;100096.50;;;14.26;81.14
11041;BME280;5573;49.592;8.662;2023-01-01T05:49:04;100101.66;;;14.16;81.81
11041;BME280;5573;49.592;8.662;2023-01-01T05:51:31;100101.66;;;14.20;81.84
11041;BME280;5573;49.592;8.662;2023-01-01T05:53:58;100115.88;;;14.22;82.47
11041;BME280;5573;49.592;8.662;2023-01-01T05:56:26;100108.34;;;14.22;81.12
11041;BME280;5573;49.592;8.662;2023-01-01T05:58:55;100111.94;;;14.12;82.51
11041;BME280;5573;49.592;8.662;2023-01-01T06:01:26;100110.75;;;14.06;82.83
11041;BME280;5573;49.592;8.662;2023-01-01T06:03:55;100122.63;;;13.99;84.47
11041;BME280;5573;49.592;8.662;2023-01-01T06:06:26;100115.53;;;14.02;83.57
11041;BME280;5573;49.592;8.662;2023-01-01T06:08:56;100116.69;;;14.15;81.91
11041;BME280;5573;49.592;8.662;2023-01-01T06:11:24;100112.75;;;14.13;81.54
11041;BME280;5573;49.592;8.662;2023-01-01T06:13:56;100105.63;;;14.15;83.85
11041;BME280;5573;49.592;8.662;2023-01-01T06:16:25;100109.19;;;13.91;83.25
11041;BME280;5573;49.592;8.662;2023-01-01T06:18:54;100122.22;;;14.01;82.37
11041;BME280;5573;49.592;8.662;2023-01-01T06:21:23;100121.44;;;14.08;81.74
11041;BME280;5573;49.592;8.662;2023-01-01T06:23:51;100119.47;;;13.97;82.49
11041;BME280;5573;49.592;8.662;2023-01-01T06:26:20;100094.59;;;13.76;83.11
11041;BME280;5573;49.592;8.662;2023-01-01T06:28:49;100116.69;;;13.97;82.66
11041;BME280;5573;49.592;8.662;2023-01-01T06:31:19;100138.06;;;13.86;83.87
11041;BME280;5573;49.592;8.662;2023-01-01T06:33:49;100132.13;;;13.84;83.59
11041;BME280;5573;49.592;8.662;2023-01-01T06:36:19;100141.22;;;13.81;84.40
11041;BME280;5573;49.592;8.662;2023-01-01T06:38:49;100140.81;;;13.86;83.66
11041;BME280;5573;49.592;8.662;2023-01-01T06:41:18;100144.38;;;13.87;83.15
11041;BME280;5573;49.592;8.662;2023-01-01T06:43:47;100129.34;;;13.70;83.77
11041;BME280;5573;49.592;8.662;2023-01-01T06:46:18;100142.78;;;13.78;85.37
11041;BME280;5573;49.592;8.662;2023-01-01T06:48:48;100145.56;;;13.82;83.59
11041;BME280;5573;49.592;8.662;2023-01-01T06:51:17;100147.53;;;13.78;84.47
11041;BME280;5573;49.592;8.662;2023-01-01T06:53:46;100145.16;;;13.83;82.93
11041;BME280;5573;49.592;8.662;2023-01-01T06:56:14;100151.06;;;13.78;83.89
11041;BME280;5573;49.592;8.662;2023-01-01T06:58:42;100157.00;;;13.73;84.33
11041;BME280;5573;49.592;8.662;2023-01-01T07:01:11;100176.75;;;13.72;84.78
11041;BME280;5573;49.592;8.662;2023-01-01T07:03:43;100166.88;;;13.63;84.96
11041;BME280;5573;49.592;8.662;2023-01-01T07:06:11;100174.78;;;13.72;84.39
11041;BME280;5573;49.592;8.662;2023-01-01T07:08:39;100177.56;;;13.69;84.33
11041;BME280;5573;49.592;8.662;2023-01-01T07:11:07;100176.38;;;13.66;83.97
11041;BME280;5573;49.592;8.662;2023-01-01T07:13:34;100193.75;;;13.67;83.53
11041;BME280;5573;49.592;8.662;2023-01-01T07:16:02;100187.03;;;13.64;83.74
11041;BME280;5573;49.592;8.662;2023-01-01T07:18:38;100192.97;;;13.77;83.43
11041;BME280;5573;49.592;8.662;2023-01-01T07:21:23;100182.66;;;13.70;83.91
11041;BME280;5573;49.592;8.662;2023-01-01T07:23:56;100145.94;;;13.30;84.72
11041;BME280;5573;49.592;8.662;2023-01-01T07:26:24;100179.91;;;13.59;84.42
11041;BME280;5573;49.592;8.662;2023-01-01T07:28:52;100172.81;;;13.69;82.80
11041;BME280;5573;49.592;8.662;2023-01-01T07:31:20;100172.81;;;13.76;82.21
11041;BME280;5573;49.592;8.662;2023-01-01T07:33:48;100174.38;;;13.74;82.19
11041;BME280;5573;49.592;8.662;2023-01-01T07:36:17;100177.13;;;13.70;81.82
11041;BME280;5573;49.592;8.662;2023-01-01T07:38:44;100194.53;;;13.81;80.16
11041;BME280;5573;49.592;8.662;2023-01-01T07:41:12;100192.94;;;13.91;79.20
11041;BME280;5573;49.592;8.662;2023-01-01T07:43:40;100205.19;;;13.87;80.41
11041;BME280;5573;49.592;8.662;2023-01-01T07:46:09;100212.31;;;13.91;80.05
11041;BME280;5573;49.592;8.662;2023-01-01T07:48:38;100212.69;;;13.82;79.82
11041;BME280;5573;49.592;8.662;2023-01-01T07:51:06;100220.59;;;13.91;79.43
11041;BME280;5573;49.592;8.662;2023-01-01T07:53:35;100227.34;;;14.05;77.54
11041;BME280;5573;49.592;8.662;2023-01-01T07:56:03;100234.06;;;14.07;78.04
11041;BME280;5573;49.592;8.662;2023-01-01T07:58:31;100232.84;;;14.08;78.34
11041;BME280;5573;49.592;8.662;2023-01-01T08:00:59;100243.16;;;14.00;78.02
11041;BME280;5573;49.592;8.662;2023-01-01T08:03:27;100238.38;;;14.08;76.78
11041;BME280;5573;49.592;8.662;2023-01-01T08:05:55;100235.66;;;14.15;77.37
11041;BME280;5573;49.592;8.662;2023-01-01T08:08:23;100250.25;;;14.12;76.61
11041;BME280;5573;49.592;8.662;2023-01-01T08:10:52;100250.28;;;14.09;76.35
11041;BME280;5573;49.592;8.662;2023-01-01T08:13:29;100248.66;;;14.18;75.29
11041;BME280;5573;49.592;8.662;2023-01-01T08:15:57;100249.88;;;14.17;75.43
11041;BME280;5573;49.592;8.662;2023-01-01T08:18:25;100248.69;;;14.22;75.63
11041;BME280;5573;49.592;8.662;2023-01-01T08:20:53;100243.53;;;14.13;77.59
11041;BME280;5573;49.592;8.662;2023-01-01T08:23:22;100238.78;;;14.14;76.97
11041;BME280;5573;49.592;8.662;2023-01-01T08:25:52;100232.88;;;14.12;76.39
11041;BME280;5573;49.592;8.662;2023-01-01T08:28:19;100233.28;;;14.07;76.56
11041;BME280;5573;49.592;8.662;2023-01-01T08:30:47;100229.72;;;14.17;76.58
11041;BME280;5573;49.592;8.662;2023-01-01T08:33:15;100231.28;;;14.07;76.42
11041;BME280;5573;49.592;8.662;2023-01-01T08:35:43;100238.41;;;14.15;76.74
11041;BME280;5573;49.592;8.662;2023-01-01T08:38:19;100227.34;;;14.26;75.49
11041;BME280;5573;49.592;8.662;2023-01-01T08:40:47;100225.38;;;14.19;76.23
11041;BME280;5573;49.592;8.662;2023-01-01T08:43:16;100230.09;;;14.26;75.83
11041;BME280;5573;49.592;8.662;2023-01-01T08:45:44;100199.28;;;14.10;74.09
11041;BME280;5573;49.592;8.662;2023-01-01T08:48:12;100238.38;;;14.37;73.86
11041;BME280;5573;49.592;8.662;2023-01-01T08:50:40;100248.28;;;14.38;73.63
11041;BME280;5573;49.592;8.662;2023-01-01T08:53:08;100244.31;;;14.39;73.68
11041;BME280;5573;49.592;8.662;2023-01-01T08:55:36;100256.59;;;14.34;75.85
11041;BME280;5573;49.592;8.662;2023-01-01T08:58:05;100217.44;;;14.14;74.45
11041;BME280;5573;49.592;8.662;2023-01-01T09:00:34;100256.56;;;14.49;74.20
11041;BME280;5573;49.592;8.662;2023-01-01T09:03:02;100263.69;;;14.60;74.17
11041;BME280;5573;49.592;8.662;2023-01-01T09:05:30;100262.53;;;14.61;73.50
11041;BME280;5573;49.592;8.662;2023-01-01T09:07:58;100269.22;;;14.68;73.14
11041;BME280;5573;49.592;8.662;2023-01-01T09:10:25;100272.41;;;14.66;73.11
11041;BME280;5573;49.592;8.662;2023-01-01T09:12:53;100267.25;;;14.68;72.36
11041;BME280;5573;49.592;8.662;2023-01-01T09:15:21;100268.81;;;14.73;72.36
11041;BME280;5573;49.592;8.662;2023-01-01T09:17:50;100185.47;;;14.02;72.28
11041;BME280;5573;49.592;8.662;2023-01-01T09:20:18;100285.44;;;14.58;72.84
11041;BME280;5573;49.592;8.662;2023-01-01T09:22:45;100292.97;;;14.61;73.96
11041;BME280;5573;49.592;8.662;2023-01-01T09:25:14;100282.28;;;14.63;73.08
11041;BME280;5573;49.592;8.662;2023-01-01T09:27:42;100296.91;;;14.71;73.52
11041;BME280;5573;49.592;8.662;2023-01-01T09:30:11;100302.47;;;14.64;73.23
11041;BME280;5573;49.592;8.662;2023-01-01T09:32:39;100303.25;;;14.72;72.65
11041;BME280;5573;49.592;8.662;2023-01-01T09:35:08;100308.75;;;14.79;73.00
11041;BME280;5573;49.592;8.662;2023-01-01T09:37:36;100315.09;;;14.87;73.64
11041;BME280;5573;49.592;8.662;2023-01-01T09:40:05;100318.63;;;14.83;72.91
11041;BME280;5573;49.592;8.662;2023-01-01T09:42:39;100323.41;;;14.83;73.41
11041;BME280;5573;49.592;8.662;2023-01-01T09:45:20;100319.03;;;14.86;75.63
11041;BME280;5573;49.592;8.662;2023-01-01T09:47:51;100318.22;;;14.96;71.68
11041;BME280;5573;49.592;8.662;2023-01-01T09:50:24;100316.66;;;14.84;73.70
11041;BME280;5573;49.592;8.662;2023-01-01T09:52:55;100313.09;;;14.87;73.89
11041;BME280;5573;49.592;8.662;2023-01-01T09:55:26;100309.53;;;14.90;73.87
11041;BME280;5573;49.592;8.662;2023-01-01T09:57:55;100311.91;;;14.88;72.67
11041;BME280;5573;49.592;8.662;2023-01-01T10:00:23;100305.56;;;14.88;72.91
11041;BME280;5573;49.592;8.662;2023-01-01T10:03:10;100300.84;;;14.81;72.99
11041;BME280;5573;49.592;8.662;2023-01-01T10:05:50;100298.81;;;15.03;71.34
11041;BME280;5573;49.592;8.662;2023-01-01T10:08:30;100292.44;;;15.17;71.08
11041;BME280;5573;49.592;8.662;2023-01-01T10:11:08;100288.09;;;15.16;70.25
11041;BME280;5573;49.592;8.662;2023-01-01T10:13:41;100294.81;;;15.11;69.87
11041;BME280;5573;49.592;8.662;2023-01-01T10:16:12;100286.13;;;15.09;70.50
11041;BME280;5573;49.592;8.662;2023-01-01T10:18:52;100296.81;;;15.07;70.90
11041;BME280;5573;49.592;8.662;2023-01-01T10:21:25;100282.97;;;15.07;71.63
11041;BME280;5573;49.592;8.662;2023-01-01T10:23:56;100282.91;;;15.21;71.18
11041;BME280;5573;49.592;8.662;2023-01-01T10:26:27;100287.28;;;15.15;71.90
11041;BME280;5573;49.592;8.662;2023-01-01T10:28:59;100288.03;;;15.30;70.15
11041;BME280;5573;49.592;8.662;2023-01-01T10:31:31;100293.19;;;15.32;70.26
11041;BME280;5573;49.592;8.662;2023-01-01T10:34:03;100264.34;;;15.15;70.19
11041;BME280;5573;49.592;8.662;2023-01-01T10:36:34;100279.22;;;15.53;69.19
11041;BME280;5573;49.592;8.662;2023-01-01T10:39:02;100295.84;;;15.60;68.24
11041;BME280;5573;49.592;8.662;2023-01-01T10:41:32;100287.91;;;15.59;69.04
11041;BME280;5573;49.592;8.662;2023-01-01T10:43:59;100284.25;;;15.80;69.55
11041;BME280;5573;49.592;8.662;2023-01-01T10:46:28;100279.69;;;16.11;66.87
11041;BME280;5573;49.592;8.662;2023-01-01T10:49:06;100272.59;;;16.07;64.86
11041;BME280;5573;49.592;8.662;2023-01-01T10:51:42;100265.16;;;15.89;64.90
11041;BME280;5573;49.592;8.662;2023-01-01T10:54:30;100276.69;;;15.84;66.57
11041;BME280;5573;49.592;8.662;2023-01-01T10:57:02;100257.50;;;16.08;64.81
11041;BME280;5573;49.592;8.662;2023-01-01T10:59:40;100256.56;;;16.25;63.70
11041;BME280;5573;49.592;8.662;2023-01-01T11:02:19;100264.47;;;16.26;63.41
11041;BME280;5573;49.592;8.662;2023-01-01T11:04:49;100232.91;;;16.10;63.15
11041;BME280;5573;49.592;8.662;2023-01-01T11:07:27;100266.69;;;16.46;61.65
11041;BME280;5573;49.592;8.662;2023-01-01T11:09:58;100265.72;;;16.22;63.38
11041;BME280;5573;49.592;8.662;2023-01-01T11:12:33;100220.28;;;16.01;63.46
11041;BME280;5573;49.592;8.662;2023-01-01T11:15:29;100255.00;;;16.24;64.48
11041;BME280;5573;49.592;8.662;2023-01-01T11:18:05;100255.34;;;16.30;62.38
11041;BME280;5573;49.592;8.662;2023-01-01T11:20:33;100264.00;;;16.35;63.27
11041;BME280;5573;49.592;8.662;2023-01-01T11:23:17;100265.66;;;16.29;62.83
11041;BME280;5573;49.592;8.662;2023-01-01T11:25:59;100255.13;;;16.06;63.68
11041;BME280;5573;49.592;8.662;2023-01-01T11:28:29;100255.50;;;16.08;65.15
11041;BME280;5573;49.592;8.662;2023-01-01T11:31:11;100254.41;;;15.98;64.83
11041;BME280;5573;49.592;8.662;2023-01-01T11:33:45;100252.50;;;15.88;64.94
11041;BME280;5573;49.592;8.662;2023-01-01T11:36:20;100246.22;;;15.77;66.87
11041;BME280;5573;49.592;8.662;2023-01-01T11:39:04;100238.63;;;15.88;66.76
11041;BME280;5573;49.592;8.662;2023-01-01T11:41:41;100227.63;;;15.77;66.31
11041;BME280;5573;49.592;8.662;2023-01-01T11:44:11;100228.84;;;15.73;67.90
11041;BME280;5573;49.592;8.662;2023-01-01T11:46:43;100235.94;;;15.77;66.50
11041;BME280;5573;49.592;8.662;2023-01-01T11:49:14;100222.88;;;15.67;67.02
11041;BME280;5573;49.592;8.662;2023-01-01T11:51:47;100219.34;;;15.67;67.05
11041;BME280;5573;49.592;8.662;2023-01-01T11:54:23;100221.16;;;15.91;65.98
11041;BME280;5573;49.592;8.662;2023-01-01T11:56:53;100213.66;;;15.92;66.01
11041;BME280;5573;49.592;8.662;2023-01-01T11:59:26;100166.31;;;15.57;65.46
11041;BME280;5573;49.592;8.662;2023-01-01T12:01:58;100223.50;;;15.96;64.10
11041;BME280;5573;49.592;8.662;2023-01-01T12:04:32;100209.16;;;16.09;64.02
11041;BME280;5573;49.592;8.662;2023-01-01T12:07:05;100199.34;;;15.93;65.32
11041;BME280;5573;49.592;8.662;2023-01-01T12:09:39;100205.59;;;16.04;64.19
11041;BME280;5573;49.592;8.662;2023-01-01T12:12:15;100201.97;;;16.11;63.98
11041;BME280;5573;49.592;8.662;2023-01-01T12:14:48;100198.78;;;16.13;62.98
11041;BME280;5573;49.592;8.662;2023-01-01T12:17:23;100195.56;;;16.18;62.96
11041;BME280;5573;49.592;8.662;2023-01-01T12:19:57;100189.75;;;16.01;63.33
11041;BME280;5573;49.592;8.662;2023-01-01T12:22:27;100201.00;;;16.32;62.31
11041;BME280;5573;49.592;8.662;2023-01-01T12:24:57;100199.63;;;16.06;63.00
11041;BME280;5573;49.592;8.662;2023-01-01T12:27:39;100207.28;;;15.91;63.55
11041;BME280;5573;49.592;8.662;2023-01-01T12:30:17;100202.03;;;16.04;62.61
11041;BME280;5573;49.592;8.662;2023-01-01T12:33:06;100199.78;;;15.88;63.42
11041;BME280;5573;49.592;8.662;2023-01-01T12:35:46;100201.34;;;15.93;63.60
11041;BME280;5573;49.592;8.662;2023-01-01T12:38:28;100199.72;;;15.95;62.96
11041;BME280;5573;49.592;8.662;2023-01-01T12:41:07;100170.97;;;15.75;64.01
11041;BME280;5573;49.592;8.662;2023-01-01T12:43:41;100196.56;;;15.93;63.39
11041;BME280;5573;49.592;8.662;2023-01-01T12:46:25;100197.47;;;15.79;63.43
11041;BME280;5573;49.592;8.662;2023-01-01T12:49:03;100187.56;;;15.78;64.19
11041;BME280;5573;49.592;8.662;2023-01-01T12:51:39;100188.72;;;15.84;64.07
11041;BME280;5573;49.592;8.662;2023-01-01T12:54:30;100200.22;;;15.83;63.90
11041;BME280;5573;49.592;8.662;2023-01-01T12:57:08;100196.28;;;15.80;63.44
11041;BME280;5573;49.592;8.662;2023-01-01T12:59:41;100141.81;;;15.45;63.02
11041;BME280;5573;49.592;8.662;2023-01-01T13:02:15;100185.22;;;15.70;63.37
11041;BME280;5573;49.592;8.662;2023-01-01T13:04:46;100184.72;;;15.89;62.65
11041;BME280;5573;49.592;8.662;2023-01-01T13:07:21;100181.88;;;15.96;61.95
11041;BME280;5573;49.592;8.662;2023-01-01T13:09:50;100185.53;;;15.90;61.92
11041;BME280;5573;49.592;8.662;2023-01-01T13:12:22;100183.84;;;15.99;61.84
11041;BME280;5573;49.592;8.662;2023-01-01T13:14:50;100177.03;;;16.08;62.31
11041;BME280;5573;49.592;8.662;2023-01-01T13:17:19;100179.06;;;16.00;62.24
11041;BME280;5573;49.592;8.662;2023-01-01T13:19:48;100181.13;;;15.92;61.89
11041;BME280;5573;49.592;8.662;2023-01-01T13:22:39;100173.13;;;15.98;62.18
11041;BME280;5573;49.592;8.662;2023-01-01T13:25:20;100176.72;;;15.98;61.36
11041;BME280;5573;49.592;8.662;2023-01-01T13:28:03;100169.91;;;16.07;61.05
11041;BME280;5573;49.592;8.662;2023-01-01T13:30:45;100178.06;;;16.24;60.18